createdAt,value
2022-11-10T00:00:39.071Z,14.30
2022-11-10T00:03:27.638Z,9.60
2022-11-10T00:06:13.363Z,7.20
2022-11-10T00:08:58.636Z,12.70
2022-11-10T00:11:44.281Z,7.50
2022-11-10T00:14:48.323Z,14.30
2022-11-10T00:17:37.248Z,13.10
2022-11-10T00:20:22.713Z,9.60
2022-11-10T00:23:08.285Z,15.30
2022-11-10T00:25:53.682Z,16.30
2022-11-10T00:28:38.751Z,7.50
2022-11-10T00:31:24.239Z,7.30
2022-11-10T00:34:16.188Z,15.20
2022-11-10T00:37:02.028Z,12.90
2022-11-10T00:39:47.951Z,8.80
2022-11-10T00:42:33.665Z,13.90
2022-11-10T00:45:19.146Z,15.70
2022-11-10T00:48:05.145Z,13.90
2022-11-10T00:50:51.054Z,11.40
2022-11-10T00:53:36.354Z,13.80
2022-11-10T00:56:23.502Z,14.30
2022-11-10T00:59:08.856Z,12.50
2022-11-10T01:01:53.705Z,8.40
2022-11-10T01:04:39.182Z,6.80
2022-11-10T01:07:24.859Z,15.80
2022-11-10T01:10:10.143Z,15.20
2022-11-10T01:12:55.446Z,15.70
2022-11-10T01:15:43.751Z,14.40
2022-11-10T01:18:29.752Z,15.90
2022-11-10T01:21:15.011Z,17.40
2022-11-10T01:24:00.479Z,8.90
2022-11-10T01:26:46.005Z,15.70
2022-11-10T01:29:31.232Z,14.70
2022-11-10T01:32:16.578Z,13.70
2022-11-10T01:35:02.016Z,14.30
2022-11-10T01:37:47.484Z,14.20
2022-11-10T01:40:32.820Z,10.20
2022-11-10T01:43:18.383Z,4.50
2022-11-10T01:46:09.798Z,12.30
2022-11-10T01:49:00.242Z,7.00
2022-11-10T01:51:56.326Z,12.80
2022-11-10T01:54:45.661Z,11.00
2022-11-10T01:57:31.531Z,12.90
2022-11-10T02:00:20.628Z,10.80
2022-11-10T02:03:35.621Z,5.40
2022-11-10T02:06:24.852Z,6.80
2022-11-10T02:09:10.773Z,13.80
2022-11-10T02:11:56.680Z,11.90
2022-11-10T02:14:42.881Z,9.70
2022-11-10T02:17:28.182Z,13.90
2022-11-10T02:20:18.759Z,8.10
2022-11-10T02:23:34.556Z,13.00
2022-11-10T02:26:23.761Z,8.10
2022-11-10T02:29:09.182Z,6.00
2022-11-10T02:31:54.668Z,5.50
2022-11-10T02:34:39.950Z,5.40
2022-11-10T02:37:25.365Z,14.40
2022-11-10T02:40:11.332Z,10.20
2022-11-10T02:42:56.595Z,15.90
2022-11-10T02:45:44.543Z,13.90
2022-11-10T02:48:29.941Z,12.50
2022-11-10T02:51:15.425Z,12.40
2022-11-10T02:54:00.995Z,10.90
2022-11-10T02:56:47.028Z,11.30
2022-11-10T02:59:32.847Z,9.70
2022-11-10T03:02:18.315Z,10.50
2022-11-10T03:05:04.321Z,8.40
2022-11-10T03:07:57.267Z,6.20
2022-11-10T03:10:42.600Z,8.10
2022-11-10T03:13:40.263Z,10.40
2022-11-10T03:16:33.534Z,9.60
2022-11-10T03:19:19.087Z,7.80
2022-11-10T03:22:04.533Z,8.50
2022-11-10T03:24:49.658Z,6.20
2022-11-10T03:27:35.248Z,6.00
2022-11-10T03:30:20.688Z,5.90
2022-11-10T03:33:05.933Z,7.10
2022-11-10T03:35:51.518Z,8.00
2022-11-10T03:38:37.248Z,9.90
2022-11-10T03:41:22.478Z,9.90
2022-11-10T03:44:07.973Z,6.60
2022-11-10T03:46:53.100Z,10.30
2022-11-10T03:49:38.917Z,7.00
2022-11-10T03:52:24.714Z,8.90
2022-11-10T03:55:12.673Z,7.00
2022-11-10T03:58:02.593Z,10.10
2022-11-10T04:00:48.058Z,6.00
2022-11-10T04:03:33.689Z,7.00
2022-11-10T04:06:37.918Z,6.40
2022-11-10T04:09:23.623Z,9.70
2022-11-10T04:12:27.768Z,11.60
2022-11-10T04:15:32.072Z,10.80
2022-11-10T04:18:20.567Z,11.00
2022-11-10T04:21:06.123Z,10.30
2022-11-10T04:23:51.303Z,8.00
2022-11-10T04:26:38.510Z,10.00
2022-11-10T04:29:24.245Z,7.70
2022-11-10T04:32:09.588Z,5.20
2022-11-10T04:34:54.849Z,8.80
2022-11-10T04:37:40.983Z,9.70
2022-11-10T04:40:26.411Z,10.60
2022-11-10T04:43:11.879Z,9.70
2022-11-10T04:45:58.295Z,9.00
2022-11-10T04:48:43.634Z,9.30
2022-11-10T04:51:35.929Z,10.70
2022-11-10T04:54:21.675Z,9.70
2022-11-10T04:57:07.028Z,9.30
2022-11-10T04:59:52.412Z,6.80
2022-11-10T05:02:39.750Z,8.80
2022-11-10T05:05:25.603Z,5.40
2022-11-10T05:08:11.470Z,8.80
2022-11-10T05:10:57.180Z,5.70
2022-11-10T05:13:43.218Z,5.30
2022-11-10T05:16:28.509Z,10.80
2022-11-10T05:19:14.084Z,12.30
2022-11-10T05:21:59.185Z,12.00
2022-11-10T05:24:44.854Z,11.80
2022-11-10T05:27:30.144Z,12.30
2022-11-10T05:30:15.816Z,11.50
2022-11-10T05:33:02.015Z,6.40
2022-11-10T05:35:50.308Z,10.00
2022-11-10T05:38:41.902Z,8.30
2022-11-10T05:41:28.983Z,5.50
2022-11-10T05:44:14.647Z,8.70
2022-11-10T05:46:59.915Z,12.70
2022-11-10T05:49:45.487Z,6.10
2022-11-10T05:52:30.629Z,8.60
2022-11-10T05:55:18.481Z,7.50
2022-11-10T05:58:04.487Z,13.70
2022-11-10T06:00:49.907Z,15.20
2022-11-10T06:03:35.580Z,12.10
2022-11-10T06:06:22.454Z,6.10
2022-11-10T06:09:08.443Z,6.50
2022-11-10T06:11:53.953Z,8.50
2022-11-10T06:14:39.411Z,21.70
2022-11-10T06:17:25.529Z,21.80
2022-11-10T06:20:12.507Z,19.40
2022-11-10T06:23:09.900Z,11.20
2022-11-10T06:25:55.391Z,13.80
2022-11-10T06:28:40.780Z,11.50
2022-11-10T06:31:26.589Z,7.80
2022-11-10T06:34:11.893Z,16.00
2022-11-10T06:36:57.128Z,19.30
2022-11-10T06:39:42.384Z,18.80
2022-11-10T06:42:27.586Z,13.80
2022-11-10T06:45:13.156Z,13.20
2022-11-10T06:48:13.193Z,13.90
2022-11-10T06:51:02.493Z,15.50
2022-11-10T06:53:48.262Z,11.00
2022-11-10T06:56:34.562Z,15.10
2022-11-10T06:59:20.907Z,14.90
2022-11-10T07:02:14.059Z,14.20
2022-11-10T07:04:59.478Z,11.20
2022-11-10T07:07:44.755Z,11.30
2022-11-10T07:10:30.991Z,7.50
2022-11-10T07:13:16.942Z,11.80
2022-11-10T07:16:09.847Z,15.70
2022-11-10T07:18:55.073Z,11.60
2022-11-10T07:21:41.586Z,10.30
2022-11-10T07:24:29.722Z,8.40
2022-11-10T07:27:15.983Z,12.70
2022-11-10T07:30:01.953Z,8.40
2022-11-10T07:32:47.740Z,7.80
2022-11-10T07:35:34.107Z,12.90
2022-11-10T07:38:19.679Z,12.40
2022-11-10T07:41:05.119Z,6.30
2022-11-10T07:43:50.510Z,11.20
2022-11-10T07:46:35.973Z,13.10
2022-11-10T07:49:21.444Z,9.50
2022-11-10T07:52:07.172Z,9.90
2022-11-10T07:54:52.875Z,9.10
2022-11-10T07:57:39.306Z,12.30
2022-11-10T08:00:25.612Z,11.00
2022-11-10T08:03:14.255Z,10.10
2022-11-10T08:05:59.579Z,8.20
2022-11-10T08:08:49.429Z,7.70
2022-11-10T08:11:34.904Z,6.10
2022-11-10T08:14:20.152Z,9.90
2022-11-10T08:17:05.383Z,7.00
2022-11-10T08:19:50.894Z,10.10
2022-11-10T08:22:36.327Z,10.70
2022-11-10T08:25:22.895Z,9.60
2022-11-10T08:28:11.171Z,7.50
2022-11-10T08:30:59.373Z,4.20
2022-11-10T08:33:48.481Z,9.80
2022-11-10T08:36:35.037Z,7.30
2022-11-10T08:39:37.510Z,5.60
2022-11-10T08:42:24.346Z,9.70
2022-11-10T08:45:12.363Z,7.40
2022-11-10T08:48:19.610Z,11.80
2022-11-10T08:51:08.720Z,11.70
2022-11-10T08:53:54.179Z,10.30
2022-11-10T08:56:40.071Z,7.70
2022-11-10T08:59:26.033Z,5.20
2022-11-10T09:02:11.281Z,4.60
2022-11-10T09:04:56.713Z,9.10
2022-11-10T09:07:47.267Z,6.80
2022-11-10T09:10:35.343Z,10.10
2022-11-10T09:13:26.058Z,7.30
2022-11-10T09:16:15.139Z,10.10
2022-11-10T09:19:00.596Z,8.90
2022-11-10T09:21:46.398Z,6.20
2022-11-10T09:24:31.745Z,5.30
2022-11-10T09:27:18.071Z,9.30
2022-11-10T09:30:10.617Z,7.20
2022-11-10T09:33:00.322Z,8.60
2022-11-10T09:35:45.824Z,5.70
2022-11-10T09:38:31.305Z,9.30
2022-11-10T09:41:17.503Z,6.20
2022-11-10T09:44:25.549Z,6.70
2022-11-10T09:47:42.400Z,10.20
2022-11-10T09:50:34.407Z,9.00
2022-11-10T09:53:25.836Z,5.40
2022-11-10T09:56:16.734Z,6.10
2022-11-10T09:59:26.782Z,7.60
2022-11-10T10:02:40.120Z,9.70
2022-11-10T10:05:51.743Z,10.20
2022-11-10T10:08:52.440Z,7.70
2022-11-10T10:11:54.072Z,6.80
2022-11-10T10:15:14.868Z,10.70
2022-11-10T10:18:38.859Z,10.90
2022-11-10T10:21:45.307Z,11.20
2022-11-10T10:24:32.990Z,11.30
2022-11-10T10:27:23.490Z,10.30
2022-11-10T10:30:17.708Z,9.80
2022-11-10T10:33:14.124Z,7.50
2022-11-10T10:36:14.639Z,11.60
2022-11-10T10:39:26.739Z,8.70
2022-11-10T10:42:27.687Z,10.00
2022-11-10T10:45:18.116Z,6.60
2022-11-10T10:48:24.457Z,5.60
2022-11-10T10:51:10.418Z,11.70
2022-11-10T10:53:55.996Z,10.90
2022-11-10T10:56:41.309Z,9.80
2022-11-10T10:59:26.917Z,10.10
2022-11-10T11:02:29.277Z,10.00
2022-11-10T11:05:18.810Z,8.70
2022-11-10T11:08:05.163Z,9.60
2022-11-10T11:10:50.834Z,10.80
2022-11-10T11:13:36.790Z,12.50
2022-11-10T11:16:22.470Z,12.20
2022-11-10T11:19:08.714Z,7.60
2022-11-10T11:22:12.877Z,8.20
2022-11-10T11:25:20.666Z,7.50
2022-11-10T11:28:36.032Z,12.10
2022-11-10T11:31:27.100Z,12.70
2022-11-10T11:34:38.201Z,14.50
2022-11-10T11:37:50.278Z,7.20
2022-11-10T11:40:51.208Z,18.10
2022-11-10T11:43:39.606Z,14.20
2022-11-10T11:46:29.006Z,16.80
2022-11-10T11:49:33.988Z,15.30
2022-11-10T11:52:30.186Z,17.00
2022-11-10T11:55:47.630Z,10.40
2022-11-10T11:58:58.470Z,8.60
2022-11-10T12:01:53.443Z,9.60
2022-11-10T12:05:10.426Z,6.70
2022-11-10T12:08:13.726Z,11.10
2022-11-10T12:11:10.299Z,10.50
2022-11-10T12:14:20.243Z,9.70
2022-11-10T12:17:16.672Z,10.10
2022-11-10T12:20:41.941Z,6.70
2022-11-10T12:23:57.063Z,5.60
2022-11-10T12:27:02.886Z,8.90
2022-11-10T12:30:01.140Z,7.90
2022-11-10T12:33:00.100Z,6.10
2022-11-10T12:35:47.508Z,9.90
2022-11-10T12:38:59.549Z,7.20
2022-11-10T12:41:50.300Z,8.90
2022-11-10T12:44:54.948Z,10.40
2022-11-10T12:47:45.574Z,7.60
2022-11-10T12:50:42.069Z,5.80
2022-11-10T12:53:32.015Z,7.40
2022-11-10T12:56:24.304Z,6.20
2022-11-10T12:59:34.760Z,11.60
2022-11-10T13:02:34.660Z,10.80
2022-11-10T13:05:26.494Z,8.30
2022-11-10T13:08:17.953Z,6.30
2022-11-10T13:11:19.509Z,13.00
2022-11-10T13:14:21.947Z,10.90
2022-11-10T13:17:09.789Z,9.80
2022-11-10T13:20:05.272Z,8.80
2022-11-10T13:23:00.144Z,7.10
2022-11-10T13:25:55.098Z,11.80
2022-11-10T13:28:47.050Z,8.60
2022-11-10T13:31:32.818Z,7.90
2022-11-10T13:34:26.583Z,24.50
2022-11-10T13:37:33.704Z,11.10
2022-11-10T13:40:24.915Z,9.20
2022-11-10T13:43:23.373Z,11.30
2022-11-10T13:46:09.168Z,14.10
2022-11-10T13:49:01.725Z,13.90
2022-11-10T13:54:53.675Z,8.70
2022-11-10T13:57:52.043Z,7.00
2022-11-10T14:00:41.300Z,5.60
2022-11-10T14:03:45.423Z,12.70
2022-11-10T14:06:37.064Z,12.70
2022-11-10T14:09:42.387Z,8.90
2022-11-10T14:12:34.537Z,13.60
2022-11-10T14:15:24.358Z,13.30
2022-11-10T14:18:22.013Z,13.10
2022-11-10T14:21:11.770Z,15.30
2022-11-10T14:24:13.135Z,13.70
2022-11-10T14:27:05.206Z,10.50
2022-11-10T14:30:14.590Z,14.20
2022-11-10T14:33:08.812Z,8.90
2022-11-10T14:36:00.930Z,14.10
2022-11-10T14:38:47.209Z,14.20
2022-11-10T14:41:32.734Z,11.50
2022-11-10T14:44:27.178Z,15.50
2022-11-10T14:47:15.591Z,13.60
2022-11-10T14:50:21.061Z,10.20
2022-11-10T14:53:17.452Z,8.00
2022-11-10T14:56:06.114Z,9.90
2022-11-10T14:58:55.115Z,17.10
2022-11-10T15:01:49.899Z,18.10
2022-11-10T15:04:35.991Z,22.20
2022-11-10T15:07:22.260Z,72.80
2022-11-10T15:10:21.035Z,50.60
2022-11-10T15:13:19.883Z,76.10
2022-11-10T15:16:36.012Z,46.90
2022-11-10T15:19:45.091Z,84.50
2022-11-10T15:22:34.587Z,47.80
2022-11-10T15:25:23.353Z,34.90
2022-11-10T15:28:11.825Z,21.10
2022-11-10T15:31:07.146Z,11.80
2022-11-10T15:34:01.438Z,11.70
2022-11-10T15:36:47.024Z,10.20
2022-11-10T15:39:32.569Z,19.70
2022-11-10T15:42:20.806Z,18.00
2022-11-10T15:45:06.267Z,20.00
2022-11-10T15:47:55.160Z,21.30
2022-11-10T15:50:42.591Z,18.30
2022-11-10T15:53:38.613Z,18.90
2022-11-10T15:56:24.840Z,11.20
2022-11-10T15:59:10.662Z,18.20
2022-11-10T16:01:56.481Z,25.70
2022-11-10T16:04:42.296Z,18.60
2022-11-10T16:07:28.056Z,25.20
2022-11-10T16:10:13.581Z,23.60
2022-11-10T16:12:59.246Z,20.50
2022-11-10T16:15:45.011Z,16.00
2022-11-10T16:18:31.117Z,20.50
2022-11-10T16:21:21.071Z,13.80
2022-11-10T16:24:06.855Z,19.10
2022-11-10T16:26:52.362Z,19.70
2022-11-10T16:29:38.403Z,21.40
2022-11-10T16:32:24.013Z,15.40
2022-11-10T16:35:14.336Z,21.10
2022-11-10T16:37:59.631Z,25.90
2022-11-10T16:40:50.200Z,25.10
2022-11-10T16:43:36.150Z,17.80
2022-11-10T16:46:28.185Z,33.60
2022-11-10T16:49:21.702Z,26.10
2022-11-10T16:52:18.446Z,25.60
2022-11-10T16:55:04.132Z,24.90
2022-11-10T16:57:50.329Z,18.40
2022-11-10T17:00:37.055Z,25.90
2022-11-10T17:03:46.184Z,24.00
2022-11-10T17:06:32.189Z,18.10
2022-11-10T17:09:21.451Z,18.70
2022-11-10T17:12:09.740Z,23.40
2022-11-10T17:14:55.018Z,21.40
2022-11-10T17:17:49.319Z,16.10
2022-11-10T17:20:46.400Z,25.90
2022-11-10T17:23:45.364Z,24.40
2022-11-10T17:26:41.723Z,24.30
2022-11-10T17:29:30.209Z,18.00
2022-11-10T17:32:43.202Z,23.80
2022-11-10T17:35:28.090Z,22.10
2022-11-10T17:38:26.571Z,21.00
2022-11-10T17:41:18.421Z,13.10
2022-11-10T17:44:05.276Z,16.60
2022-11-10T17:46:50.774Z,16.30
2022-11-10T17:49:36.814Z,14.00
2022-11-10T17:52:22.976Z,12.00
2022-11-10T17:55:32.741Z,18.30
2022-11-10T17:58:24.461Z,14.40
2022-11-10T18:01:25.921Z,17.40
2022-11-10T18:04:15.439Z,11.70
2022-11-10T18:07:00.908Z,22.50
2022-11-10T18:09:55.743Z,16.50
2022-11-10T18:12:41.331Z,17.20
2022-11-10T18:15:28.708Z,22.30
2022-11-10T18:18:16.483Z,23.10
2022-11-10T18:21:02.733Z,17.90
2022-11-10T18:23:48.119Z,24.10
2022-11-10T18:26:33.864Z,21.60
2022-11-10T18:29:21.017Z,12.80
2022-11-10T18:32:06.481Z,13.10
2022-11-10T18:34:56.161Z,11.90
2022-11-10T18:37:41.538Z,13.70
2022-11-10T18:40:27.040Z,22.50
2022-11-10T18:43:13.305Z,23.10
2022-11-10T18:45:58.913Z,22.90
2022-11-10T18:48:53.829Z,17.10
2022-11-10T18:51:40.049Z,21.50
2022-11-10T18:54:26.976Z,23.80
2022-11-10T18:57:16.131Z,22.70
2022-11-10T19:00:06.653Z,24.00
2022-11-10T19:02:55.733Z,13.70
2022-11-10T19:05:43.308Z,25.80
2022-11-10T19:08:44.452Z,25.80
2022-11-10T19:11:33.160Z,21.20
2022-11-10T19:14:18.260Z,16.20
2022-11-10T19:17:04.211Z,16.20
2022-11-10T19:19:55.039Z,27.10
2022-11-10T19:22:42.976Z,24.60
2022-11-10T19:37:06.953Z,14.80
2022-11-10T19:40:39.760Z,18.80
2022-11-10T19:53:11.345Z,20.90
2022-11-10T20:22:51.580Z,26.30
2022-11-10T20:35:53.653Z,21.80
2022-11-10T20:38:48.847Z,18.10
2022-11-10T20:41:35.101Z,17.60
2022-11-10T20:44:22.415Z,24.50
2022-11-10T20:47:08.477Z,23.40
2022-11-10T20:49:55.515Z,21.70
2022-11-10T20:53:17.656Z,24.80
2022-11-10T20:56:13.337Z,20.10
2022-11-10T20:58:59.010Z,20.50
2022-11-10T21:01:44.970Z,13.70
2022-11-10T21:04:31.547Z,14.40
2022-11-10T21:07:17.810Z,15.10
2022-11-10T21:10:03.830Z,23.30
2022-11-10T21:12:49.003Z,24.10
2022-11-10T21:20:29.311Z,13.50
2022-11-10T21:24:03.189Z,22.80
2022-11-10T21:27:50.771Z,19.90
2022-11-10T21:31:08.130Z,21.90
2022-11-10T21:34:07.319Z,17.50
2022-11-10T21:36:52.783Z,15.60
2022-11-10T21:39:46.384Z,17.80
2022-11-10T21:42:44.000Z,27.20
2022-11-10T21:45:46.626Z,27.60
2022-11-10T21:48:35.519Z,26.90
2022-11-10T21:51:25.448Z,20.50
2022-11-10T21:54:23.829Z,28.40
2022-11-10T21:57:54.305Z,26.40
2022-11-10T22:00:36.069Z,29.00
2022-11-10T22:03:23.571Z,19.70
2022-11-10T22:06:14.940Z,28.50
2022-11-10T22:09:00.387Z,20.70
2022-11-10T22:12:04.737Z,26.30
2022-11-10T22:15:08.579Z,22.60
2022-11-10T22:18:13.002Z,25.90
2022-11-10T22:20:58.244Z,23.20
2022-11-10T22:24:02.152Z,16.80
2022-11-10T22:26:47.855Z,25.40
2022-11-10T22:29:33.516Z,25.70
2022-11-10T22:32:19.225Z,26.60
2022-11-10T22:35:05.257Z,24.20
2022-11-10T22:37:50.840Z,25.90
2022-11-10T22:40:55.085Z,19.40
2022-11-10T22:43:58.807Z,19.00
2022-11-10T22:46:47.451Z,27.70
2022-11-10T22:49:33.095Z,27.60
2022-11-10T22:52:18.466Z,28.50
2022-11-10T22:55:03.704Z,27.90
2022-11-10T22:57:51.530Z,24.90
2022-11-10T23:00:37.117Z,20.20
2022-11-10T23:03:22.876Z,26.30
2022-11-10T23:06:10.122Z,28.10
2022-11-10T23:08:55.892Z,23.40
2022-11-10T23:11:41.545Z,19.10
2022-11-10T23:14:26.830Z,30.80
2022-11-10T23:17:11.874Z,19.40
2022-11-10T23:20:00.213Z,18.40
2022-11-10T23:22:45.192Z,29.70
2022-11-10T23:25:31.121Z,27.60
2022-11-10T23:28:16.356Z,27.00
2022-11-10T23:31:02.915Z,28.80
2022-11-10T23:33:53.057Z,32.60
2022-11-10T23:36:38.373Z,24.50
2022-11-10T23:39:23.515Z,28.30
2022-11-10T23:42:08.832Z,28.40
2022-11-10T23:44:55.055Z,20.00
2022-11-10T23:47:40.653Z,18.60
2022-11-10T23:50:25.880Z,13.70
2022-11-10T23:53:12.516Z,32.10
2022-11-10T23:56:00.205Z,26.90
2022-11-10T23:58:47.909Z,27.80
